createdAt,value
2023-05-06T00:00:31.372Z,76.32
2023-05-06T00:02:57.680Z,76.35
2023-05-06T00:05:24.067Z,76.00
2023-05-06T00:07:50.592Z,76.60
2023-05-06T00:10:16.989Z,76.80
2023-05-06T00:12:43.354Z,77.24
2023-05-06T00:15:10.586Z,76.67
2023-05-06T00:17:37.371Z,76.29
2023-05-06T00:20:04.523Z,75.77
2023-05-06T00:22:30.995Z,76.89
2023-05-06T00:24:57.277Z,75.73
2023-05-06T00:27:23.540Z,76.92
2023-05-06T00:29:49.798Z,75.49
2023-05-06T00:32:16.093Z,75.42
2023-05-06T00:34:42.899Z,75.00
2023-05-06T00:37:09.177Z,74.39
2023-05-06T00:39:35.540Z,75.13
2023-05-06T00:42:04.823Z,74.64
2023-05-06T00:44:31.858Z,74.12
2023-05-06T00:46:59.484Z,74.66
2023-05-06T00:49:26.100Z,74.44
2023-05-06T00:51:53.982Z,75.26
2023-05-06T00:54:20.433Z,75.49
2023-05-06T00:56:46.856Z,75.42
2023-05-06T00:59:13.174Z,76.06
2023-05-06T01:01:40.633Z,76.10
2023-05-06T01:04:08.642Z,75.63
2023-05-06T01:07:01.761Z,76.24
2023-05-06T01:09:33.877Z,75.95
2023-05-06T01:12:09.581Z,75.97
2023-05-06T01:14:46.538Z,76.60
2023-05-06T01:17:16.637Z,76.54
2023-05-06T01:19:53.266Z,75.82
2023-05-06T01:22:19.976Z,76.02
2023-05-06T01:24:49.363Z,75.64
2023-05-06T01:27:16.753Z,76.27
2023-05-06T01:29:45.301Z,76.09
2023-05-06T01:32:34.634Z,76.71
2023-05-06T01:35:15.967Z,75.94
2023-05-06T01:38:37.906Z,76.24
2023-05-06T01:41:04.625Z,76.00
2023-05-06T01:43:37.556Z,75.89
2023-05-06T01:46:04.622Z,74.98
2023-05-06T01:48:33.671Z,75.30
2023-05-06T01:50:59.999Z,75.82
2023-05-06T01:53:26.661Z,76.19
2023-05-06T01:55:52.936Z,75.10
2023-05-06T01:58:19.272Z,75.21
2023-05-06T02:00:45.551Z,75.58
2023-05-06T02:03:12.367Z,74.98
2023-05-06T02:05:38.767Z,74.81
2023-05-06T02:08:05.122Z,74.08
2023-05-06T02:10:31.443Z,75.41
2023-05-06T02:12:57.797Z,74.36
2023-05-06T02:15:24.186Z,74.22
2023-05-06T02:17:50.593Z,73.59
2023-05-06T02:20:16.940Z,73.49
2023-05-06T02:22:43.465Z,73.93
2023-05-06T02:25:10.151Z,73.95
2023-05-06T02:27:36.780Z,74.27
2023-05-06T02:30:03.586Z,74.69
2023-05-06T02:32:29.901Z,74.69
2023-05-06T02:34:56.218Z,73.89
2023-05-06T02:37:22.601Z,74.29
2023-05-06T02:39:48.930Z,74.83
2023-05-06T02:42:15.982Z,74.21
2023-05-06T02:44:42.374Z,74.44
2023-05-06T02:47:08.651Z,74.53
2023-05-06T02:49:34.943Z,74.34
2023-05-06T02:52:01.235Z,75.40
2023-05-06T02:54:27.629Z,75.29
2023-05-06T02:56:53.975Z,75.97
2023-05-06T02:59:20.960Z,76.30
2023-05-06T03:01:47.840Z,76.80
2023-05-06T03:04:14.458Z,77.34
2023-05-06T03:06:40.808Z,76.88
2023-05-06T03:09:07.200Z,77.03
2023-05-06T03:11:33.490Z,76.73
2023-05-06T03:13:59.787Z,77.21
2023-05-06T03:16:26.423Z,77.25
2023-05-06T03:18:52.769Z,76.65
2023-05-06T03:21:19.096Z,77.41
2023-05-06T03:23:45.570Z,77.77
2023-05-06T03:26:11.907Z,78.25
2023-05-06T03:28:38.241Z,78.39
2023-05-06T03:31:04.633Z,78.15
2023-05-06T03:33:30.935Z,78.56
2023-05-06T03:35:57.266Z,79.17
2023-05-06T03:38:23.582Z,78.72
2023-05-06T03:40:50.438Z,78.91
2023-05-06T03:43:16.760Z,79.56
2023-05-06T03:45:43.192Z,79.36
2023-05-06T03:48:09.634Z,80.28
2023-05-06T03:50:36.062Z,79.86
2023-05-06T03:53:02.596Z,79.55
2023-05-06T03:55:29.340Z,80.44
2023-05-06T03:57:55.643Z,80.37
2023-05-06T04:00:21.955Z,80.49
2023-05-06T04:02:48.592Z,80.77
2023-05-06T04:05:15.216Z,81.09
2023-05-06T04:07:41.531Z,80.77
2023-05-06T04:10:08.581Z,80.92
2023-05-06T04:12:34.922Z,80.69
2023-05-06T04:15:01.227Z,80.87
2023-05-06T04:17:27.507Z,81.18
2023-05-06T04:19:53.924Z,80.42
2023-05-06T04:22:20.577Z,81.04
2023-05-06T04:24:46.793Z,80.89
2023-05-06T04:27:13.092Z,80.90
2023-05-06T04:29:39.412Z,80.77
2023-05-06T04:32:05.984Z,80.60
2023-05-06T04:34:32.420Z,80.02
2023-05-06T04:36:59.275Z,80.70
2023-05-06T04:39:25.539Z,80.71
2023-05-06T04:41:51.865Z,80.50
2023-05-06T04:44:19.398Z,81.11
2023-05-06T04:46:46.065Z,80.48
2023-05-06T04:49:12.690Z,81.08
2023-05-06T04:51:39.075Z,80.32
2023-05-06T04:54:05.440Z,80.25
2023-05-06T04:56:31.788Z,80.17
2023-05-06T04:58:58.153Z,80.09
2023-05-06T05:01:24.541Z,79.87
2023-05-06T05:03:50.917Z,80.54
2023-05-06T05:06:17.295Z,80.04
2023-05-06T05:08:43.586Z,79.48
2023-05-06T05:11:10.212Z,78.40
2023-05-06T05:13:40.028Z,77.91
2023-05-06T05:16:06.598Z,77.91
2023-05-06T05:18:32.902Z,78.30
2023-05-06T05:20:59.162Z,77.94
2023-05-06T05:23:25.509Z,77.39
2023-05-06T05:25:51.834Z,77.11
2023-05-06T05:28:18.207Z,77.52
2023-05-06T05:30:44.558Z,77.43
2023-05-06T05:33:11.104Z,76.96
2023-05-06T05:35:37.428Z,76.71
2023-05-06T05:38:03.742Z,76.81
2023-05-06T05:40:30.089Z,76.79
2023-05-06T05:42:56.429Z,76.09
2023-05-06T05:45:22.724Z,76.26
2023-05-06T05:47:49.124Z,75.51
2023-05-06T05:50:15.488Z,75.88
2023-05-06T05:52:41.753Z,75.75
2023-05-06T05:55:08.688Z,76.31
2023-05-06T05:57:35.347Z,76.45
2023-05-06T06:00:01.631Z,77.11
2023-05-06T06:02:27.985Z,76.31
2023-05-06T06:04:54.405Z,76.59
2023-05-06T06:07:20.821Z,76.36
2023-05-06T06:09:48.736Z,76.63
2023-05-06T06:12:15.357Z,77.30
2023-05-06T06:14:47.861Z,76.39
2023-05-06T06:17:15.233Z,76.24
2023-05-06T06:19:41.571Z,75.29
2023-05-06T06:22:08.063Z,75.08
2023-05-06T06:24:34.820Z,74.83
2023-05-06T06:27:01.464Z,74.10
2023-05-06T06:29:27.862Z,73.68
2023-05-06T06:31:58.148Z,74.17
2023-05-06T06:34:25.295Z,73.67
2023-05-06T06:36:51.627Z,73.85
2023-05-06T06:39:17.917Z,72.60
2023-05-06T06:41:44.235Z,71.64
2023-05-06T06:44:10.527Z,71.38
2023-05-06T06:46:36.906Z,72.15
2023-05-06T06:49:03.272Z,70.79
2023-05-06T06:51:29.681Z,71.04
2023-05-06T06:53:56.216Z,70.29
2023-05-06T06:56:23.034Z,71.02
2023-05-06T06:58:50.773Z,69.86
2023-05-06T07:01:18.752Z,69.24
2023-05-06T07:03:45.180Z,69.48
2023-05-06T07:06:11.516Z,67.94
2023-05-06T07:08:37.922Z,66.37
2023-05-06T07:11:04.148Z,65.62
2023-05-06T07:13:30.423Z,65.56
2023-05-06T07:15:56.792Z,65.03
2023-05-06T07:18:23.149Z,64.54
2023-05-06T07:20:49.580Z,64.49
2023-05-06T07:23:15.935Z,63.84
2023-05-06T07:25:42.246Z,65.13
2023-05-06T07:28:08.625Z,65.11
2023-05-06T07:30:37.186Z,64.22
2023-05-06T07:33:03.550Z,63.98
2023-05-06T07:35:30.003Z,62.77
2023-05-06T07:37:56.409Z,61.48
2023-05-06T07:40:22.645Z,59.45
2023-05-06T07:42:48.942Z,54.75
2023-05-06T07:45:15.370Z,47.47
2023-05-06T07:47:41.868Z,45.86
2023-05-06T07:50:08.539Z,43.16
2023-05-06T07:52:34.830Z,40.82
2023-05-06T07:55:01.384Z,38.70
2023-05-06T07:57:27.742Z,37.42
2023-05-06T07:59:54.265Z,38.27
2023-05-06T08:02:20.591Z,38.47
2023-05-06T08:04:47.960Z,36.52
2023-05-06T08:07:15.993Z,34.90
2023-05-06T08:09:42.379Z,35.29
2023-05-06T08:12:08.773Z,35.67
2023-05-06T08:14:35.141Z,37.35
2023-05-06T08:17:01.630Z,36.50
2023-05-06T08:19:28.127Z,34.30
2023-05-06T08:21:54.529Z,33.45
2023-05-06T08:24:20.982Z,35.27
2023-05-06T08:26:47.366Z,32.71
2023-05-06T08:29:13.751Z,32.34
2023-05-06T08:31:40.110Z,31.00
2023-05-06T08:34:06.447Z,31.79
2023-05-06T08:36:32.769Z,32.90
2023-05-06T08:38:59.052Z,33.60
2023-05-06T08:41:26.353Z,32.90
2023-05-06T08:43:54.213Z,35.02
2023-05-06T08:46:20.632Z,34.96
2023-05-06T08:48:47.019Z,34.17
2023-05-06T08:51:15.262Z,35.44
2023-05-06T08:53:47.561Z,35.60
2023-05-06T08:56:14.932Z,33.91
2023-05-06T08:58:45.300Z,32.02
2023-05-06T09:01:12.177Z,30.52
2023-05-06T09:03:38.626Z,30.07
2023-05-06T09:06:05.129Z,30.98
2023-05-06T09:08:31.484Z,30.99
2023-05-06T09:10:57.777Z,32.16
2023-05-06T09:13:24.576Z,32.90
2023-05-06T09:15:53.787Z,31.93
2023-05-06T09:18:20.302Z,33.54
2023-05-06T09:20:49.576Z,32.19
2023-05-06T09:23:17.103Z,34.13
2023-05-06T09:25:45.774Z,33.59
2023-05-06T09:28:13.280Z,33.72
2023-05-06T09:30:41.745Z,32.73
2023-05-06T09:33:09.137Z,32.15
2023-05-06T09:35:40.235Z,31.01
2023-05-06T09:38:07.640Z,30.84
2023-05-06T09:40:38.521Z,30.14
2023-05-06T09:43:05.673Z,29.39
2023-05-06T09:45:32.627Z,30.04
2023-05-06T09:47:59.130Z,30.65
2023-05-06T09:50:26.353Z,30.29
2023-05-06T09:52:52.728Z,30.78
2023-05-06T09:55:20.647Z,31.97
2023-05-06T09:57:48.457Z,35.21
2023-05-06T10:00:16.501Z,35.62
2023-05-06T10:02:44.448Z,37.17
2023-05-06T10:05:12.989Z,39.85
2023-05-06T10:07:41.397Z,39.59
2023-05-06T10:10:11.734Z,38.06
2023-05-06T10:12:38.233Z,37.94
2023-05-06T10:15:05.769Z,36.97
2023-05-06T10:17:32.686Z,38.54
2023-05-06T10:20:01.076Z,40.39
2023-05-06T10:22:52.182Z,38.38
2023-05-06T10:25:35.276Z,38.60
2023-05-06T10:28:06.146Z,38.96
2023-05-06T10:30:34.665Z,38.28
2023-05-06T10:33:07.109Z,35.29
2023-05-06T10:35:44.409Z,34.99
2023-05-06T10:38:35.182Z,33.61
2023-05-06T10:41:03.148Z,33.65
2023-05-06T10:43:31.283Z,31.51
2023-05-06T10:46:02.598Z,32.43
2023-05-06T10:48:29.935Z,32.75
2023-05-06T10:51:21.151Z,30.55
2023-05-06T10:54:06.976Z,32.13
2023-05-06T10:56:37.313Z,32.48
2023-05-06T10:59:09.591Z,33.93
2023-05-06T11:01:37.359Z,34.74
2023-05-06T11:04:15.110Z,34.77
2023-05-06T11:06:42.357Z,35.16
2023-05-06T11:09:22.033Z,31.93
2023-05-06T11:11:49.278Z,32.70
2023-05-06T11:14:25.693Z,32.62
2023-05-06T11:16:53.297Z,33.93
2023-05-06T11:19:25.488Z,32.80
2023-05-06T11:21:57.359Z,33.72
2023-05-06T11:24:26.285Z,32.39
2023-05-06T11:26:53.313Z,30.73
2023-05-06T11:29:19.970Z,31.28
2023-05-06T11:31:46.906Z,32.56
2023-05-06T11:34:20.292Z,32.89
2023-05-06T11:37:00.627Z,32.96
2023-05-06T11:39:38.684Z,33.51
2023-05-06T11:42:07.878Z,34.29
2023-05-06T11:44:36.761Z,34.44
2023-05-06T11:47:11.927Z,34.23
2023-05-06T11:49:43.100Z,32.64
2023-05-06T11:52:11.191Z,32.20
2023-05-06T11:54:42.431Z,31.97
2023-05-06T11:57:09.614Z,32.35
2023-05-06T11:59:37.888Z,32.17
2023-05-06T12:02:06.614Z,33.61
2023-05-06T12:04:44.587Z,33.08
2023-05-06T12:07:13.254Z,32.52
2023-05-06T12:09:42.811Z,33.69
2023-05-06T12:12:10.464Z,32.62
2023-05-06T12:14:38.306Z,32.84
2023-05-06T12:17:05.322Z,32.94
2023-05-06T12:19:32.362Z,32.79
2023-05-06T12:22:18.246Z,33.16
2023-05-06T12:24:45.733Z,35.13
2023-05-06T12:27:12.084Z,34.30
2023-05-06T12:29:38.566Z,35.55
2023-05-06T12:32:11.717Z,34.72
2023-05-06T12:34:39.976Z,35.55
2023-05-06T12:37:07.755Z,32.85
2023-05-06T12:39:36.076Z,32.84
2023-05-06T12:42:02.465Z,33.87
2023-05-06T12:44:36.596Z,34.17
2023-05-06T12:47:08.120Z,34.00
2023-05-06T12:50:04.041Z,34.30
2023-05-06T12:52:30.642Z,34.77
2023-05-06T12:54:57.428Z,34.05
2023-05-06T12:57:23.748Z,34.47
2023-05-06T12:59:50.610Z,33.07
2023-05-06T13:02:17.047Z,31.75
2023-05-06T13:04:44.164Z,32.38
2023-05-06T13:07:10.539Z,33.55
2023-05-06T13:09:36.831Z,33.07
2023-05-06T13:12:04.923Z,35.09
2023-05-06T13:14:31.228Z,31.43
2023-05-06T13:17:00.770Z,31.49
2023-05-06T13:21:58.616Z,30.46
2023-05-06T13:24:24.943Z,30.33
2023-05-06T13:26:52.149Z,30.88
2023-05-06T13:29:18.975Z,31.90
2023-05-06T13:31:45.273Z,33.02
2023-05-06T13:34:11.653Z,31.30
2023-05-06T13:36:38.780Z,31.04
2023-05-06T13:39:05.101Z,31.55
2023-05-06T13:41:31.826Z,31.63
2023-05-06T13:43:58.114Z,31.51
2023-05-06T13:46:24.443Z,32.06
2023-05-06T13:48:51.074Z,31.92
2023-05-06T13:51:17.439Z,31.41
2023-05-06T13:53:43.878Z,32.44
2023-05-06T13:56:10.143Z,33.31
2023-05-06T13:58:36.622Z,33.99
2023-05-06T14:01:03.587Z,34.69
2023-05-06T14:03:29.978Z,33.19
2023-05-06T14:05:56.308Z,33.87
2023-05-06T14:08:22.709Z,33.66
2023-05-06T14:10:48.995Z,33.67
2023-05-06T14:13:15.399Z,34.29
2023-05-06T14:15:41.800Z,34.61
2023-05-06T14:18:08.334Z,33.75
2023-05-06T14:20:34.703Z,33.52
2023-05-06T14:23:01.160Z,33.79
2023-05-06T14:25:27.968Z,33.18
2023-05-06T14:27:54.873Z,33.07
2023-05-06T14:30:21.427Z,32.80
2023-05-06T14:32:47.849Z,33.04
2023-05-06T14:35:14.172Z,34.71
2023-05-06T14:37:40.817Z,34.45
2023-05-06T14:40:07.895Z,35.06
2023-05-06T14:42:35.685Z,34.84
2023-05-06T14:45:02.657Z,35.95
2023-05-06T14:47:29.008Z,36.17
2023-05-06T14:49:55.355Z,37.53
2023-05-06T14:52:21.664Z,36.40
2023-05-06T14:54:47.986Z,35.85
2023-05-06T14:57:14.299Z,35.11
2023-05-06T14:59:40.857Z,36.50
2023-05-06T15:02:09.675Z,35.79
2023-05-06T15:04:36.562Z,36.28
2023-05-06T15:07:03.352Z,36.09
2023-05-06T15:09:29.714Z,35.14
2023-05-06T15:11:56.056Z,35.05
2023-05-06T15:14:22.347Z,36.67
2023-05-06T15:16:48.714Z,35.58
2023-05-06T15:19:15.156Z,36.27
2023-05-06T15:21:41.466Z,36.55
2023-05-06T15:24:08.079Z,37.22
2023-05-06T15:26:34.406Z,37.24
2023-05-06T15:29:00.760Z,36.60
2023-05-06T15:31:27.162Z,37.10
2023-05-06T15:33:53.473Z,37.09
2023-05-06T15:36:19.751Z,37.72
2023-05-06T15:38:51.957Z,37.25
2023-05-06T15:41:19.156Z,36.76
2023-05-06T15:43:45.532Z,36.07
2023-05-06T15:46:11.854Z,35.79
2023-05-06T15:48:38.152Z,36.28
2023-05-06T15:51:04.458Z,36.59
2023-05-06T15:53:30.758Z,37.22
2023-05-06T15:56:03.556Z,38.09
2023-05-06T15:58:40.953Z,38.06
2023-05-06T16:01:08.574Z,37.90
2023-05-06T16:03:36.205Z,38.66
2023-05-06T16:06:02.649Z,38.94
2023-05-06T16:08:29.173Z,39.28
2023-05-06T16:10:55.649Z,39.81
2023-05-06T16:13:22.021Z,39.85
2023-05-06T16:15:48.747Z,39.97
2023-05-06T16:18:15.071Z,39.77
2023-05-06T16:20:41.487Z,39.61
2023-05-06T16:23:07.964Z,39.81
2023-05-06T16:25:34.685Z,40.31
2023-05-06T16:28:01.004Z,40.34
2023-05-06T16:30:27.302Z,39.76
2023-05-06T16:32:53.629Z,40.47
2023-05-06T16:35:20.256Z,40.58
2023-05-06T16:37:46.530Z,40.78
2023-05-06T16:40:14.118Z,40.14
2023-05-06T16:42:40.443Z,39.99
2023-05-06T16:45:07.490Z,40.09
2023-05-06T16:47:33.919Z,39.83
2023-05-06T16:50:01.071Z,40.58
2023-05-06T16:52:30.083Z,41.72
2023-05-06T16:54:57.209Z,42.45
2023-05-06T16:57:23.589Z,42.89
2023-05-06T16:59:50.406Z,42.97
2023-05-06T17:02:16.812Z,43.01
2023-05-06T17:04:43.110Z,43.44
2023-05-06T17:07:11.066Z,43.01
2023-05-06T17:09:38.474Z,43.21
2023-05-06T17:12:05.535Z,43.20
2023-05-06T17:14:31.794Z,42.87
2023-05-06T17:17:02.038Z,42.97
2023-05-06T17:19:28.585Z,42.66
2023-05-06T17:21:55.171Z,42.29
2023-05-06T17:24:21.672Z,42.50
2023-05-06T17:26:48.013Z,42.63
2023-05-06T17:29:14.347Z,43.69
2023-05-06T17:31:40.640Z,44.44
2023-05-06T17:34:07.403Z,44.97
2023-05-06T17:36:33.733Z,45.56
2023-05-06T17:39:04.935Z,45.48
2023-05-06T17:41:31.919Z,45.38
2023-05-06T17:43:58.295Z,45.39
2023-05-06T17:46:24.685Z,45.40
2023-05-06T17:48:51.047Z,45.43
2023-05-06T17:51:19.007Z,46.07
2023-05-06T17:53:45.377Z,46.49
2023-05-06T17:56:11.681Z,46.45
2023-05-06T17:58:38.052Z,46.84
2023-05-06T18:01:04.404Z,46.26
2023-05-06T18:03:30.805Z,47.22
2023-05-06T18:05:58.172Z,46.38
2023-05-06T18:08:24.454Z,46.87
2023-05-06T18:10:50.750Z,47.34
2023-05-06T18:13:17.261Z,47.12
2023-05-06T18:15:43.666Z,47.26
2023-05-06T18:18:10.054Z,47.65
2023-05-06T18:20:36.534Z,47.64
2023-05-06T18:23:02.850Z,48.06
2023-05-06T18:25:29.216Z,48.01
2023-05-06T18:27:55.532Z,48.02
2023-05-06T18:30:21.949Z,48.89
2023-05-06T18:32:51.026Z,48.84
2023-05-06T18:35:18.200Z,49.28
2023-05-06T18:37:44.414Z,49.43
2023-05-06T18:40:11.221Z,49.78
2023-05-06T18:42:37.613Z,49.77
2023-05-06T18:45:06.670Z,50.00
2023-05-06T18:47:33.087Z,50.33
2023-05-06T18:50:00.615Z,50.98
2023-05-06T18:52:27.160Z,50.65
2023-05-06T18:54:53.458Z,50.89
2023-05-06T18:57:19.906Z,51.32
2023-05-06T18:59:46.219Z,51.39
2023-05-06T19:02:12.446Z,51.23
2023-05-06T19:04:38.755Z,51.88
2023-05-06T19:07:04.991Z,52.46
2023-05-06T19:09:36.616Z,52.29
2023-05-06T19:12:03.992Z,52.73
2023-05-06T19:14:32.231Z,53.23
2023-05-06T19:16:58.570Z,53.89
2023-05-06T19:19:24.851Z,53.79
2023-05-06T19:21:51.076Z,54.32
2023-05-06T19:24:17.721Z,54.63
2023-05-06T19:26:44.836Z,54.90
2023-05-06T19:29:11.111Z,55.38
2023-05-06T19:31:37.450Z,55.58
2023-05-06T19:34:03.919Z,55.47
2023-05-06T19:36:30.466Z,56.41
2023-05-06T19:38:56.769Z,56.46
2023-05-06T19:41:23.064Z,57.04
2023-05-06T19:43:51.181Z,57.66
2023-05-06T19:46:18.426Z,58.04
2023-05-06T19:48:45.828Z,58.14
2023-05-06T19:51:12.173Z,58.97
2023-05-06T19:53:38.424Z,58.76
2023-05-06T19:56:12.368Z,59.02
2023-05-06T19:58:40.436Z,59.34
2023-05-06T20:01:06.819Z,60.01
2023-05-06T20:03:33.388Z,59.94
2023-05-06T20:05:59.756Z,59.61
2023-05-06T20:08:26.596Z,59.45
2023-05-06T20:10:53.220Z,59.18
2023-05-06T20:13:19.715Z,60.11
2023-05-06T20:15:46.089Z,60.71
2023-05-06T20:18:12.373Z,60.45
2023-05-06T20:20:39.824Z,60.13
2023-05-06T20:23:06.513Z,60.62
2023-05-06T20:25:33.876Z,60.86
2023-05-06T20:28:00.196Z,60.80
2023-05-06T20:30:26.516Z,61.12
2023-05-06T20:32:52.916Z,61.89
2023-05-06T20:35:19.169Z,61.54
2023-05-06T20:37:45.548Z,61.56
2023-05-06T20:40:12.516Z,62.07
2023-05-06T20:42:38.852Z,62.93
2023-05-06T20:45:05.459Z,61.88
2023-05-06T20:47:31.843Z,62.36
2023-05-06T20:49:58.238Z,62.99
2023-05-06T20:52:24.590Z,62.67
2023-05-06T20:54:50.998Z,62.68
2023-05-06T20:57:17.563Z,62.63
2023-05-06T20:59:44.321Z,63.16
2023-05-06T21:02:10.782Z,61.81
2023-05-06T21:04:37.297Z,62.32
2023-05-06T21:07:03.605Z,62.80
2023-05-06T21:09:30.003Z,62.87
2023-05-06T21:11:56.253Z,62.56
2023-05-06T21:14:25.990Z,62.49
2023-05-06T21:16:52.950Z,62.56
2023-05-06T21:19:19.497Z,62.12
2023-05-06T21:21:45.857Z,62.47
2023-05-06T21:24:12.844Z,63.49
2023-05-06T21:26:39.695Z,63.40
2023-05-06T21:29:06.010Z,63.38
2023-05-06T21:31:32.364Z,63.46
2023-05-06T21:33:58.794Z,62.55
2023-05-06T21:36:25.906Z,62.70
2023-05-06T21:39:06.783Z,62.88
2023-05-06T21:41:35.465Z,63.36
2023-05-06T21:44:05.703Z,63.37
2023-05-06T21:46:32.723Z,63.71
2023-05-06T21:49:00.275Z,63.31
2023-05-06T21:51:34.495Z,64.03
2023-05-06T21:54:12.480Z,64.41
2023-05-06T21:56:38.882Z,64.40
2023-05-06T21:59:06.238Z,64.44
2023-05-06T22:01:32.648Z,64.83
2023-05-06T22:03:59.047Z,64.19
2023-05-06T22:06:25.454Z,65.12
2023-05-06T22:08:51.962Z,64.86
2023-05-06T22:11:18.380Z,64.79
2023-05-06T22:13:44.596Z,64.59
2023-05-06T22:16:11.015Z,65.20
2023-05-06T22:18:41.425Z,65.77
2023-05-06T22:21:08.601Z,65.94
2023-05-06T22:23:35.101Z,65.96
2023-05-06T22:26:01.452Z,65.97
2023-05-06T22:28:27.820Z,66.41
2023-05-06T22:30:54.120Z,66.36
2023-05-06T22:33:20.595Z,66.33
2023-05-06T22:35:46.843Z,67.29
2023-05-06T22:38:13.181Z,66.06
2023-05-06T22:40:39.465Z,66.67
2023-05-06T22:43:05.965Z,66.35
2023-05-06T22:45:32.503Z,67.32
2023-05-06T22:47:58.921Z,65.68
2023-05-06T22:50:25.392Z,66.76
2023-05-06T22:52:51.720Z,67.04
2023-05-06T22:55:18.065Z,66.75
2023-05-06T22:57:44.721Z,66.42
2023-05-06T23:00:12.592Z,67.51
2023-05-06T23:02:39.745Z,66.70
2023-05-06T23:05:06.468Z,66.81
2023-05-06T23:07:32.885Z,66.48
2023-05-06T23:09:59.615Z,66.44
2023-05-06T23:12:26.063Z,66.61
2023-05-06T23:14:52.260Z,65.83
2023-05-06T23:17:18.547Z,66.22
2023-05-06T23:19:45.920Z,65.49
2023-05-06T23:22:12.415Z,66.39
2023-05-06T23:24:38.894Z,65.92
2023-05-06T23:27:05.294Z,66.75
2023-05-06T23:29:31.664Z,67.56
2023-05-06T23:31:57.939Z,66.87
2023-05-06T23:34:24.272Z,66.52
2023-05-06T23:36:51.053Z,67.53
2023-05-06T23:39:17.468Z,67.62
2023-05-06T23:41:43.778Z,67.29
2023-05-06T23:44:10.230Z,66.43
2023-05-06T23:46:36.649Z,67.01
2023-05-06T23:49:03.071Z,67.32
2023-05-06T23:51:29.313Z,67.01
2023-05-06T23:53:55.689Z,67.17
2023-05-06T23:56:22.042Z,66.84
2023-05-06T23:58:48.323Z,66.72
